Time,TemperatureF,DewpointF,PressureIn,WindDirection,WindDirectionDegrees,WindSpeedMPH,WindSpeedGustMPH,Humidity,HourlyPrecipIn,Conditions,Clouds,dailyrainin,SolarRadiationWatts/m^2,SoftwareType,DateUTC
2013-06-25 00:00:00,79.8,71.0,30.02,SSW,194,0.0,-999.0,75,-99.99,,,0.00,0,weatherlink.com 1.10,2013-06-25 05:00:00,
2013-06-25 00:15:00,79.6,71.0,30.02,SSW,192,0.0,-999.0,75,-99.99,,,0.00,0,weatherlink.com 1.10,2013-06-25 05:15:00,
2013-06-25 00:30:00,79.2,71.0,30.02,SSW,192,0.0,-999.0,76,-99.99,,,0.00,0,weatherlink.com 1.10,2013-06-25 05:30:00,
2013-06-25 00:45:00,78.9,71.0,30.01,SSW,192,0.0,-999.0,77,-99.99,,,0.00,0,weatherlink.com 1.10,2013-06-25 05:45:00,
2013-06-25 01:00:00,78.5,71.0,30.01,SSW,192,0.0,-999.0,78,-99.99,,,0.00,0,weatherlink.com 1.10,2013-06-25 06:00:00,
2013-06-25 01:15:00,78.2,71.0,30.01,SSW,192,0.0,-999.0,79,-99.99,,,0.00,0,weatherlink.com 1.10,2013-06-25 06:15:00,
2013-06-25 01:30:00,77.9,71.0,30.00,SSW,192,0.0,-999.0,79,-99.99,,,0.00,0,weatherlink.com 1.10,2013-06-25 06:30:00,
2013-06-25 01:45:00,77.7,71.0,30.00,SSW,192,0.0,-999.0,80,-99.99,,,0.00,0,weatherlink.com 1.10,2013-06-25 06:45:00,
2013-06-25 02:00:00,77.1,71.0,30.00,SSW,192,0.0,-999.0,81,-99.99,,,0.00,0,weatherlink.com 1.10,2013-06-25 07:00:00,
2013-06-25 02:15:00,76.8,71.0,30.00,SSW,192,0.0,-999.0,82,-99.99,,,0.00,0,weatherlink.com 1.10,2013-06-25 07:15:00,
2013-06-25 02:30:00,76.8,71.0,30.00,SSW,192,0.0,-999.0,83,-99.99,,,0.00,0,weatherlink.com 1.10,2013-06-25 07:30:00,
2013-06-25 02:46:00,76.5,71.0,30.01,SSW,192,0.0,-999.0,83,-99.99,,,0.00,0,weatherlink.com 1.10,2013-06-25 07:46:00,
2013-06-25 03:01:00,76.2,71.0,30.01,SSW,192,0.0,-999.0,84,-99.99,,,0.00,0,weatherlink.com 1.10,2013-06-25 08:01:00,
2013-06-25 03:16:00,76.0,71.0,30.01,SSW,192,0.0,-999.0,84,-99.99,,,0.00,0,weatherlink.com 1.10,2013-06-25 08:16:00,
2013-06-25 03:31:00,75.8,71.0,30.01,SSW,192,0.0,-999.0,85,-99.99,,,0.00,0,weatherlink.com 1.10,2013-06-25 08:31:00,
2013-06-25 03:46:00,75.5,71.0,30.01,SSW,192,0.0,-999.0,86,-99.99,,,0.00,0,weatherlink.com 1.10,2013-06-25 08:46:00,
2013-06-25 04:01:00,75.1,71.0,30.00,SSW,192,0.0,-999.0,86,-99.99,,,0.00,0,weatherlink.com 1.10,2013-06-25 09:01:00,
2013-06-25 04:16:00,74.8,71.0,30.00,SSW,192,0.0,-999.0,87,-99.99,,,0.00,0,weatherlink.com 1.10,2013-06-25 09:16:00,
2013-06-25 04:31:00,74.7,71.0,30.00,SSW,192,0.0,-999.0,87,-99.99,,,0.00,0,weatherlink.com 1.10,2013-06-25 09:31:00,
2013-06-25 04:46:00,74.4,71.0,30.00,SSW,192,0.0,-999.0,88,-99.99,,,0.00,0,weatherlink.com 1.10,2013-06-25 09:46:00,
2013-06-25 05:01:00,74.5,71.0,30.00,SSW,192,0.0,-999.0,88,-99.99,,,0.00,0,weatherlink.com 1.10,2013-06-25 10:01:00,
2013-06-25 05:16:00,74.6,71.0,30.00,SSW,192,0.0,-999.0,88,-99.99,,,0.00,0,weatherlink.com 1.10,2013-06-25 10:16:00,
2013-06-25 05:31:00,74.5,71.0,30.00,SSW,192,0.0,-999.0,88,-99.99,,,0.00,0,weatherlink.com 1.10,2013-06-25 10:31:00,
2013-06-25 05:46:00,74.4,71.0,30.00,SSW,192,0.0,-999.0,88,-99.99,,,0.00,0,weatherlink.com 1.10,2013-06-25 10:46:00,
2013-06-25 06:01:00,74.3,71.0,30.00,SSW,192,0.0,-999.0,89,-99.99,,,0.00,7,weatherlink.com 1.10,2013-06-25 11:01:00,
2013-06-25 06:16:00,74.3,71.0,30.01,SSW,192,0.0,-999.0,89,-99.99,,,0.00,18,weatherlink.com 1.10,2013-06-25 11:16:00,
2013-06-25 06:31:00,74.5,71.0,30.00,SSW,192,0.0,-999.0,89,-99.99,,,0.00,37,weatherlink.com 1.10,2013-06-25 11:31:00,
2013-06-25 06:46:00,74.7,71.0,30.01,SSW,192,0.0,-999.0,89,-99.99,,,0.00,58,weatherlink.com 1.10,2013-06-25 11:46:00,
2013-06-25 07:01:00,75.3,72.0,30.01,SSW,192,0.0,-999.0,89,-99.99,,,0.00,91,weatherlink.com 1.10,2013-06-25 12:01:00,
2013-06-25 07:16:00,76.1,72.0,30.01,South,187,0.0,-999.0,88,-99.99,,,0.00,127,weatherlink.com 1.10,2013-06-25 12:16:00,
2013-06-25 07:32:00,77.0,73.0,30.01,South,187,0.0,-999.0,86,-99.99,,,0.00,151,weatherlink.com 1.10,2013-06-25 12:32:00,
2013-06-25 07:46:00,78.2,73.0,30.02,South,187,0.0,-999.0,85,-99.99,,,0.00,248,weatherlink.com 1.10,2013-06-25 12:46:00,
2013-06-25 08:02:00,79.3,73.0,30.02,SSE,159,0.0,-999.0,82,-99.99,,,0.00,287,weatherlink.com 1.10,2013-06-25 13:02:00,
2013-06-25 08:16:00,80.2,74.0,30.02,SSE,157,0.0,-999.0,81,-99.99,,,0.00,341,weatherlink.com 1.10,2013-06-25 13:16:00,
2013-06-25 08:32:00,81.4,74.0,30.02,South,182,0.0,-999.0,79,-99.99,,,0.00,397,weatherlink.com 1.10,2013-06-25 13:32:00,
2013-06-25 08:47:00,82.3,75.0,30.02,South,179,2.0,-999.0,78,-99.99,,,0.00,425,weatherlink.com 1.10,2013-06-25 13:47:00,
2013-06-25 09:02:00,82.8,75.0,30.02,SSW,207,0.0,-999.0,76,-99.99,,,0.00,475,weatherlink.com 1.10,2013-06-25 14:02:00,
2013-06-25 09:17:00,82.9,74.0,30.01,South,171,0.0,-999.0,75,-99.99,,,0.00,496,weatherlink.com 1.10,2013-06-25 14:17:00,
2013-06-25 09:32:00,83.3,74.0,30.01,SSW,192,0.0,-999.0,73,-99.99,,,0.00,515,weatherlink.com 1.10,2013-06-25 14:32:00,
2013-06-25 09:47:00,83.8,74.0,30.01,SSW,198,8.0,-999.0,73,-99.99,,,0.00,570,weatherlink.com 1.10,2013-06-25 14:47:00,
2013-06-25 10:02:00,84.4,75.0,30.01,SW,215,4.0,-999.0,73,-99.99,,,0.00,613,weatherlink.com 1.10,2013-06-25 15:02:00,
2013-06-25 10:17:00,85.3,75.0,30.01,SW,220,0.0,-999.0,70,-99.99,,,0.00,668,weatherlink.com 1.10,2013-06-25 15:17:00,
2013-06-25 10:32:00,86.2,75.0,30.01,SSW,202,0.0,-999.0,70,-99.99,,,0.00,691,weatherlink.com 1.10,2013-06-25 15:32:00,
2013-06-25 10:47:00,86.8,76.0,30.01,SSW,203,0.0,-999.0,69,-99.99,,,0.00,705,weatherlink.com 1.10,2013-06-25 15:47:00,
2013-06-25 11:03:00,87.0,75.0,30.01,SW,223,0.0,-999.0,67,-99.99,,,0.00,810,weatherlink.com 1.10,2013-06-25 16:03:00,
2013-06-25 11:18:00,87.3,75.0,30.02,SSW,201,1.0,-999.0,67,-99.99,,,0.00,200,weatherlink.com 1.10,2013-06-25 16:18:00,
2013-06-25 11:33:00,88.6,75.0,30.02,South,191,0.0,-999.0,64,-99.99,,,0.00,863,weatherlink.com 1.10,2013-06-25 16:33:00,
2013-06-25 11:48:00,88.8,76.0,30.02,SSW,196,0.0,-999.0,65,-99.99,,,0.00,895,weatherlink.com 1.10,2013-06-25 16:48:00,
2013-06-25 12:03:00,89.5,76.0,30.01,SW,227,0.0,-999.0,64,-99.99,,,0.00,851,weatherlink.com 1.10,2013-06-25 17:03:00,
2013-06-25 12:18:00,89.2,74.0,30.01,WSW,237,0.0,-999.0,62,-99.99,,,0.00,244,weatherlink.com 1.10,2013-06-25 17:18:00,
2013-06-25 12:33:00,89.3,74.0,30.02,SW,215,1.0,-999.0,61,-99.99,,,0.00,991,weatherlink.com 1.10,2013-06-25 17:33:00,
2013-06-25 12:48:00,89.9,74.0,30.01,SSW,211,6.0,-999.0,59,-99.99,,,0.00,960,weatherlink.com 1.10,2013-06-25 17:48:00,
2013-06-25 13:03:00,90.4,74.0,30.01,SW,220,1.0,-999.0,59,-99.99,,,0.00,969,weatherlink.com 1.10,2013-06-25 18:03:00,
2013-06-25 13:18:00,89.9,74.0,30.00,SW,214,0.0,-999.0,60,-99.99,,,0.00,255,weatherlink.com 1.10,2013-06-25 18:18:00,
2013-06-25 13:48:00,90.9,74.0,30.00,SSW,198,0.0,-999.0,57,-99.99,,,0.00,958,weatherlink.com 1.10,2013-06-25 18:48:00,
2013-06-25 14:03:00,91.5,74.0,29.99,SW,232,6.0,-999.0,56,-99.99,,,0.00,870,weatherlink.com 1.10,2013-06-25 19:03:00,
2013-06-25 14:18:00,91.7,73.0,29.99,SSW,213,0.0,-999.0,55,-99.99,,,0.00,777,weatherlink.com 1.10,2013-06-25 19:18:00,
2013-06-25 14:33:00,91.9,73.0,29.98,SW,215,8.0,-999.0,54,-99.99,,,0.00,881,weatherlink.com 1.10,2013-06-25 19:33:00,
2013-06-25 14:48:00,91.9,74.0,29.98,SW,214,0.0,-999.0,56,-99.99,,,0.00,902,weatherlink.com 1.10,2013-06-25 19:48:00,
2013-06-25 15:03:00,92.9,74.0,29.97,SW,225,2.0,-999.0,54,-99.99,,,0.00,914,weatherlink.com 1.10,2013-06-25 20:03:00,
2013-06-25 15:18:00,92.6,75.0,29.96,SW,219,4.0,-999.0,56,-99.99,,,0.00,823,weatherlink.com 1.10,2013-06-25 20:18:00,
2013-06-25 15:33:00,92.9,73.0,29.96,SSW,208,0.0,-999.0,53,-99.99,,,0.00,867,weatherlink.com 1.10,2013-06-25 20:33:00,
2013-06-25 15:48:00,92.8,73.0,29.96,SSW,197,0.0,-999.0,53,-99.99,,,0.00,383,weatherlink.com 1.10,2013-06-25 20:48:00,
2013-06-25 16:03:00,92.2,73.0,29.95,SSW,194,2.0,-999.0,54,-99.99,,,0.00,633,weatherlink.com 1.10,2013-06-25 21:03:00,
2013-06-25 16:18:00,93.0,73.0,29.94,South,190,0.0,-999.0,52,-99.99,,,0.00,608,weatherlink.com 1.10,2013-06-25 21:18:00,
2013-06-25 16:33:00,92.0,72.0,29.93,SSW,198,3.0,-999.0,53,-99.99,,,0.00,257,weatherlink.com 1.10,2013-06-25 21:33:00,
2013-06-25 16:48:00,90.6,73.0,29.93,South,178,5.0,-999.0,56,-99.99,,,0.00,258,weatherlink.com 1.10,2013-06-25 21:48:00,
2013-06-25 17:03:00,90.1,73.0,29.91,South,184,0.0,-999.0,57,-99.99,,,0.00,230,weatherlink.com 1.10,2013-06-25 22:03:00,
2013-06-25 17:18:00,89.0,73.0,29.89,SSE,157,0.0,-999.0,59,-99.99,,,0.00,185,weatherlink.com 1.10,2013-06-25 22:18:00,
2013-06-25 17:33:00,88.3,73.0,29.90,South,174,0.0,-999.0,60,-99.99,,,0.00,199,weatherlink.com 1.10,2013-06-25 22:33:00,
2013-06-25 17:48:00,88.0,73.0,29.90,South,181,0.0,-999.0,61,-99.99,,,0.00,239,weatherlink.com 1.10,2013-06-25 22:48:00,
2013-06-25 18:03:00,88.3,73.0,29.90,South,186,0.0,-999.0,61,-99.99,,,0.00,248,weatherlink.com 1.10,2013-06-25 23:03:00,
2013-06-25 18:18:00,88.7,74.0,29.89,South,179,6.0,-999.0,62,-99.99,,,0.00,169,weatherlink.com 1.10,2013-06-25 23:18:00,
2013-06-25 18:33:00,88.5,74.0,29.90,SSE,164,2.0,-999.0,62,-99.99,,,0.00,95,weatherlink.com 1.10,2013-06-25 23:33:00,
2013-06-25 18:48:00,87.7,74.0,29.89,South,172,1.0,-999.0,63,-99.99,,,0.00,81,weatherlink.com 1.10,2013-06-25 23:48:00,
2013-06-25 19:03:00,87.2,72.0,29.89,SSW,197,0.0,-999.0,61,-99.99,,,0.00,90,weatherlink.com 1.10,2013-06-26 00:03:00,
2013-06-25 19:18:00,86.6,72.0,29.89,South,170,0.0,-999.0,62,-99.99,,,0.00,62,weatherlink.com 1.10,2013-06-26 00:18:00,
2013-06-25 19:33:00,85.8,72.0,29.88,SSE,166,0.0,-999.0,63,-99.99,,,0.00,51,weatherlink.com 1.10,2013-06-26 00:33:00,
2013-06-25 19:48:00,85.1,72.0,29.88,SSE,162,0.0,-999.0,64,-99.99,,,0.00,40,weatherlink.com 1.10,2013-06-26 00:48:00,
2013-06-25 20:03:00,84.2,72.0,29.89,South,171,0.0,-999.0,66,-99.99,,,0.00,25,weatherlink.com 1.10,2013-06-26 01:03:00,
2013-06-25 20:18:00,83.6,72.0,29.89,South,171,2.0,-999.0,68,-99.99,,,0.00,11,weatherlink.com 1.10,2013-06-26 01:18:00,
2013-06-25 20:33:00,83.0,72.0,29.89,SSE,161,0.0,-999.0,69,-99.99,,,0.00,0,weatherlink.com 1.10,2013-06-26 01:33:00,
2013-06-25 20:48:00,82.4,72.0,29.89,SSE,163,0.0,-999.0,70,-99.99,,,0.00,0,weatherlink.com 1.10,2013-06-26 01:48:00,
2013-06-25 21:03:00,81.9,72.0,29.89,SSE,163,0.0,-999.0,71,-99.99,,,0.00,0,weatherlink.com 1.10,2013-06-26 02:03:00,
2013-06-25 21:18:00,81.5,72.0,29.89,SSE,163,0.0,-999.0,72,-99.99,,,0.00,0,weatherlink.com 1.10,2013-06-26 02:18:00,
2013-06-25 21:33:00,81.3,71.0,29.90,SSE,162,0.0,-999.0,72,-99.99,,,0.00,0,weatherlink.com 1.10,2013-06-26 02:33:00,
2013-06-25 21:48:00,81.3,71.0,29.90,SSE,159,1.0,-999.0,72,-99.99,,,0.00,0,weatherlink.com 1.10,2013-06-26 02:48:00,
2013-06-25 22:03:00,81.3,72.0,29.90,SSE,161,0.0,-999.0,73,-99.99,,,0.00,0,weatherlink.com 1.10,2013-06-26 03:03:00,
2013-06-25 22:18:00,81.2,72.0,29.90,SSE,161,0.0,-999.0,73,-99.99,,,0.00,0,weatherlink.com 1.10,2013-06-26 03:18:00,
2013-06-25 22:33:00,81.0,72.0,29.91,SSE,163,0.0,-999.0,73,-99.99,,,0.00,0,weatherlink.com 1.10,2013-06-26 03:33:00,
2013-06-25 22:48:00,80.8,72.0,29.91,SSE,163,0.0,-999.0,74,-99.99,,,0.00,0,weatherlink.com 1.10,2013-06-26 03:48:00,
2013-06-25 23:04:00,80.5,72.0,29.91,SSE,163,0.0,-999.0,75,-99.99,,,0.00,0,weatherlink.com 1.10,2013-06-26 04:04:00,
2013-06-25 23:19:00,80.2,72.0,29.92,SSE,163,0.0,-999.0,75,-99.99,,,0.00,0,weatherlink.com 1.10,2013-06-26 04:19:00,
2013-06-25 23:34:00,79.7,72.0,29.92,SSE,163,0.0,-999.0,76,-99.99,,,0.00,0,weatherlink.com 1.10,2013-06-26 04:34:00,
2013-06-25 23:49:00,79.3,72.0,29.93,SSE,163,0.0,-999.0,77,-99.99,,,0.00,0,weatherlink.com 1.10,2013-06-26 04:49:00,